createdAt,value
2023-04-16T00:00:27.830Z,78.80
2023-04-16T00:03:00.391Z,78.96
2023-04-16T00:05:32.931Z,80.27
2023-04-16T00:08:05.898Z,80.32
2023-04-16T00:10:38.418Z,80.23
2023-04-16T00:13:10.758Z,80.34
2023-04-16T00:15:43.069Z,80.97
2023-04-16T00:18:15.384Z,80.92
2023-04-16T00:20:47.993Z,80.04
2023-04-16T00:23:20.970Z,81.17
2023-04-16T00:25:53.543Z,81.00
2023-04-16T00:28:26.749Z,82.03
2023-04-16T00:31:01.566Z,81.92
2023-04-16T00:33:34.975Z,82.02
2023-04-16T00:36:07.631Z,80.94
2023-04-16T00:38:40.574Z,81.58
2023-04-16T00:41:12.928Z,81.62
2023-04-16T00:43:45.351Z,80.21
2023-04-16T00:46:19.460Z,80.33
2023-04-16T00:49:20.228Z,80.22
2023-04-16T00:51:53.769Z,80.58
2023-04-16T00:54:26.985Z,80.47
2023-04-16T00:56:59.460Z,80.77
2023-04-16T00:59:32.408Z,81.08
2023-04-16T01:02:04.806Z,81.15
2023-04-16T01:04:37.373Z,79.99
2023-04-16T01:07:10.020Z,80.45
2023-04-16T01:09:43.657Z,80.78
2023-04-16T01:12:15.910Z,81.03
2023-04-16T01:14:48.512Z,81.66
2023-04-16T01:17:20.923Z,81.68
2023-04-16T01:19:53.174Z,81.95
2023-04-16T01:22:26.312Z,81.75
2023-04-16T01:24:59.288Z,81.74
2023-04-16T01:27:31.767Z,81.94
2023-04-16T01:30:05.778Z,81.46
2023-04-16T01:32:48.904Z,80.94
2023-04-16T01:35:21.257Z,82.36
2023-04-16T01:37:54.339Z,81.19
2023-04-16T01:40:26.611Z,82.76
2023-04-16T01:42:59.089Z,83.80
2023-04-16T01:45:32.264Z,83.50
2023-04-16T01:48:05.057Z,83.09
2023-04-16T01:50:37.518Z,82.73
2023-04-16T01:53:10.522Z,83.44
2023-04-16T01:55:42.839Z,83.17
2023-04-16T01:58:15.388Z,82.47
2023-04-16T02:00:47.785Z,81.75
2023-04-16T02:03:20.843Z,82.60
2023-04-16T02:05:53.377Z,83.33
2023-04-16T02:08:26.444Z,83.35
2023-04-16T02:10:59.367Z,83.68
2023-04-16T02:13:32.144Z,84.18
2023-04-16T02:16:05.068Z,85.41
2023-04-16T02:18:54.652Z,86.21
2023-04-16T02:21:29.222Z,85.71
2023-04-16T02:24:02.734Z,85.53
2023-04-16T02:26:36.452Z,86.07
2023-04-16T02:29:15.714Z,85.91
2023-04-16T02:31:52.726Z,84.50
2023-04-16T02:34:25.324Z,84.38
2023-04-16T02:36:58.026Z,85.73
2023-04-16T02:39:31.268Z,86.76
2023-04-16T02:42:03.789Z,86.22
2023-04-16T02:44:36.064Z,85.27
2023-04-16T02:47:08.383Z,85.77
2023-04-16T02:49:40.660Z,85.64
2023-04-16T02:52:15.735Z,84.61
2023-04-16T02:54:48.956Z,84.33
2023-04-16T02:57:21.279Z,84.21
2023-04-16T02:59:53.670Z,85.23
2023-04-16T03:02:26.584Z,86.21
2023-04-16T03:04:58.980Z,85.39
2023-04-16T03:07:31.301Z,85.17
2023-04-16T03:10:05.543Z,84.48
2023-04-16T03:12:38.550Z,85.33
2023-04-16T03:15:12.408Z,84.53
2023-04-16T03:17:44.898Z,85.57
2023-04-16T03:20:18.441Z,84.83
2023-04-16T03:22:51.638Z,84.07
2023-04-16T03:25:24.678Z,84.05
2023-04-16T03:27:57.001Z,83.42
2023-04-16T03:30:29.617Z,83.29
2023-04-16T03:33:01.962Z,82.12
2023-04-16T03:35:34.769Z,81.85
2023-04-16T03:38:07.921Z,82.71
2023-04-16T03:40:40.899Z,83.12
2023-04-16T03:43:13.283Z,85.56
2023-04-16T03:45:46.089Z,85.17
2023-04-16T03:48:18.639Z,84.80
2023-04-16T03:50:50.980Z,85.89
2023-04-16T03:53:25.264Z,85.96
2023-04-16T03:55:58.672Z,86.43
2023-04-16T03:58:31.018Z,87.02
2023-04-16T04:01:03.351Z,86.67
2023-04-16T04:03:35.884Z,87.27
2023-04-16T04:06:08.585Z,87.00
2023-04-16T04:08:40.885Z,87.15
2023-04-16T04:11:13.931Z,84.25
2023-04-16T04:13:48.073Z,83.68
2023-04-16T04:16:20.498Z,85.02
2023-04-16T04:18:52.842Z,86.17
2023-04-16T04:21:25.301Z,87.46
2023-04-16T04:23:57.754Z,86.70
2023-04-16T04:26:30.861Z,86.08
2023-04-16T04:29:03.240Z,86.00
2023-04-16T04:31:36.034Z,85.99
2023-04-16T04:34:08.467Z,85.77
2023-04-16T04:36:40.904Z,86.61
2023-04-16T04:39:13.212Z,86.95
2023-04-16T04:41:49.016Z,85.45
2023-04-16T04:44:23.933Z,83.27
2023-04-16T04:46:57.008Z,83.69
2023-04-16T04:49:29.870Z,84.19
2023-04-16T04:52:02.230Z,85.45
2023-04-16T04:54:34.705Z,86.60
2023-04-16T04:57:08.210Z,88.28
2023-04-16T04:59:40.511Z,88.22
2023-04-16T05:02:13.198Z,86.99
2023-04-16T05:04:45.513Z,87.49
2023-04-16T05:07:17.807Z,86.16
2023-04-16T05:09:50.144Z,83.63
2023-04-16T05:12:23.090Z,83.79
2023-04-16T05:14:55.552Z,84.67
2023-04-16T05:17:27.915Z,82.59
2023-04-16T05:20:00.322Z,81.22
2023-04-16T05:22:32.999Z,80.99
2023-04-16T05:25:05.868Z,81.54
2023-04-16T05:27:38.961Z,80.38
2023-04-16T05:30:11.931Z,81.05
2023-04-16T05:32:44.355Z,81.95
2023-04-16T05:35:17.639Z,81.31
2023-04-16T05:37:50.202Z,80.78
2023-04-16T05:40:22.520Z,80.40
2023-04-16T05:42:55.702Z,79.34
2023-04-16T05:45:28.202Z,78.95
2023-04-16T05:48:01.063Z,78.61
2023-04-16T05:50:33.456Z,79.43
2023-04-16T05:53:07.695Z,78.62
2023-04-16T05:55:40.062Z,76.19
2023-04-16T05:58:12.993Z,76.05
2023-04-16T06:00:45.372Z,73.92
2023-04-16T06:03:17.826Z,73.98
2023-04-16T06:05:50.348Z,73.13
2023-04-16T06:08:22.920Z,73.77
2023-04-16T06:10:55.880Z,73.94
2023-04-16T06:13:28.865Z,73.59
2023-04-16T06:16:01.532Z,70.92
2023-04-16T06:18:33.942Z,68.72
2023-04-16T06:21:06.274Z,69.61
2023-04-16T06:23:38.578Z,68.18
2023-04-16T06:26:11.095Z,68.35
2023-04-16T06:28:44.103Z,66.83
2023-04-16T06:31:16.443Z,64.82
2023-04-16T06:33:48.756Z,65.19
2023-04-16T06:36:21.051Z,65.92
2023-04-16T06:38:53.404Z,64.79
2023-04-16T06:41:26.067Z,65.45
2023-04-16T06:43:58.997Z,67.34
2023-04-16T06:46:31.492Z,66.10
2023-04-16T06:49:03.800Z,65.27
2023-04-16T06:51:36.192Z,65.56
2023-04-16T06:54:08.522Z,63.69
2023-04-16T06:56:40.836Z,62.43
2023-04-16T06:59:13.769Z,62.18
2023-04-16T07:01:46.130Z,60.58
2023-04-16T07:04:18.481Z,60.20
2023-04-16T07:06:50.858Z,58.60
2023-04-16T07:09:23.223Z,57.08
2023-04-16T07:11:55.619Z,56.88
2023-04-16T07:14:28.546Z,53.41
2023-04-16T07:17:00.859Z,51.31
2023-04-16T07:19:33.181Z,50.41
2023-04-16T07:22:05.550Z,50.45
2023-04-16T07:24:37.860Z,50.10
2023-04-16T07:27:10.912Z,49.87
2023-04-16T07:29:45.200Z,49.50
2023-04-16T07:32:22.184Z,47.49
2023-04-16T07:34:55.198Z,50.34
2023-04-16T07:37:27.497Z,53.10
2023-04-16T07:40:00.052Z,55.21
2023-04-16T07:42:33.165Z,54.56
2023-04-16T07:45:07.405Z,55.59
2023-04-16T07:47:39.783Z,56.11
2023-04-16T07:50:12.493Z,56.47
2023-04-16T07:52:45.210Z,55.94
2023-04-16T07:55:17.544Z,57.55
2023-04-16T07:57:49.831Z,54.70
2023-04-16T08:00:22.887Z,55.89
2023-04-16T08:02:55.707Z,50.67
2023-04-16T08:05:28.121Z,50.72
2023-04-16T08:08:00.495Z,49.84
2023-04-16T08:10:33.115Z,49.44
2023-04-16T08:13:05.449Z,46.22
2023-04-16T08:15:38.541Z,47.19
2023-04-16T08:18:14.843Z,45.84
2023-04-16T08:20:47.228Z,46.19
2023-04-16T08:23:19.728Z,47.56
2023-04-16T08:25:53.057Z,48.79
2023-04-16T08:28:25.407Z,50.12
2023-04-16T08:30:58.430Z,49.07
2023-04-16T08:33:30.801Z,49.55
2023-04-16T08:36:03.160Z,47.71
2023-04-16T08:38:35.501Z,49.38
2023-04-16T08:41:11.379Z,49.50
2023-04-16T08:43:45.110Z,48.42
2023-04-16T08:46:22.365Z,50.73
2023-04-16T08:48:55.531Z,49.99
2023-04-16T08:51:33.182Z,51.06
2023-04-16T08:54:09.053Z,49.37
2023-04-16T08:56:43.248Z,50.50
2023-04-16T08:59:15.921Z,49.98
2023-04-16T09:01:51.590Z,49.85
2023-04-16T09:04:27.259Z,50.10
2023-04-16T09:07:01.028Z,49.21
2023-04-16T09:09:34.627Z,47.56
2023-04-16T09:12:08.349Z,49.60
2023-04-16T09:14:42.418Z,48.77
2023-04-16T09:17:16.126Z,47.56
2023-04-16T09:19:48.470Z,49.27
2023-04-16T09:22:20.920Z,48.62
2023-04-16T09:24:53.229Z,49.49
2023-04-16T09:27:26.132Z,49.46
2023-04-16T09:29:58.668Z,49.11
2023-04-16T09:32:31.839Z,48.21
2023-04-16T09:35:04.738Z,48.85
2023-04-16T09:37:37.102Z,48.98
2023-04-16T09:40:09.909Z,49.70
2023-04-16T09:42:42.281Z,49.65
2023-04-16T09:45:14.939Z,48.71
2023-04-16T09:47:47.968Z,47.81
2023-04-16T09:50:20.442Z,48.04
2023-04-16T09:52:52.865Z,48.97
2023-04-16T09:55:27.386Z,44.56
2023-04-16T09:58:01.102Z,44.42
2023-04-16T10:00:33.565Z,43.57
2023-04-16T10:03:07.394Z,44.83
2023-04-16T10:05:41.017Z,44.56
2023-04-16T10:08:14.119Z,44.24
2023-04-16T10:10:46.637Z,44.45
2023-04-16T10:13:19.080Z,44.67
2023-04-16T10:15:51.715Z,44.02
2023-04-16T10:18:25.143Z,44.58
2023-04-16T10:20:57.555Z,44.60
2023-04-16T10:23:30.220Z,44.44
2023-04-16T10:26:02.496Z,45.44
2023-04-16T10:28:35.612Z,45.17
2023-04-16T10:31:09.242Z,44.29
2023-04-16T10:33:43.870Z,44.47
2023-04-16T10:36:22.427Z,42.06
2023-04-16T10:38:58.508Z,43.24
2023-04-16T10:41:33.157Z,42.39
2023-04-16T10:44:08.871Z,42.94
2023-04-16T10:46:42.547Z,42.96
2023-04-16T10:49:18.438Z,43.86
2023-04-16T10:51:55.503Z,42.14
2023-04-16T10:54:29.060Z,42.09
2023-04-16T10:57:04.593Z,41.72
2023-04-16T10:59:39.093Z,43.31
2023-04-16T11:02:14.360Z,42.87
2023-04-16T11:04:48.622Z,42.35
2023-04-16T11:07:31.124Z,42.29
2023-04-16T11:10:05.523Z,41.38
2023-04-16T11:12:39.748Z,40.13
2023-04-16T11:15:13.623Z,41.81
2023-04-16T11:17:47.451Z,41.16
2023-04-16T11:20:22.228Z,41.03
2023-04-16T11:22:56.633Z,41.46
2023-04-16T11:25:30.736Z,42.64
2023-04-16T11:28:03.126Z,42.74
2023-04-16T11:30:37.144Z,42.68
2023-04-16T11:33:10.883Z,42.09
2023-04-16T11:35:45.307Z,42.86
2023-04-16T11:38:18.711Z,42.54
2023-04-16T11:40:53.368Z,42.75
2023-04-16T11:43:26.626Z,42.74
2023-04-16T11:46:00.306Z,42.61
2023-04-16T11:48:49.367Z,43.62
2023-04-16T11:51:22.846Z,43.40
2023-04-16T11:53:55.979Z,44.19
2023-04-16T11:56:29.211Z,44.64
2023-04-16T11:59:10.015Z,43.78
2023-04-16T12:01:46.483Z,44.20
2023-04-16T12:04:20.127Z,44.48
2023-04-16T12:07:09.860Z,44.20
2023-04-16T12:09:44.683Z,45.37
2023-04-16T12:12:26.802Z,44.57
2023-04-16T12:15:02.374Z,43.16
2023-04-16T12:17:35.729Z,44.13
2023-04-16T12:20:10.261Z,44.01
2023-04-16T12:22:46.150Z,44.18
2023-04-16T12:25:18.538Z,43.48
2023-04-16T12:27:53.723Z,42.77
2023-04-16T12:30:27.019Z,42.93
2023-04-16T12:33:18.454Z,42.57
2023-04-16T12:35:51.097Z,46.32
2023-04-16T12:38:24.882Z,47.90
2023-04-16T12:40:57.718Z,51.26
2023-04-16T12:43:30.132Z,50.41
2023-04-16T12:46:04.116Z,47.60
2023-04-16T12:48:37.189Z,54.25
2023-04-16T12:51:09.483Z,52.88
2023-04-16T12:53:42.423Z,57.39
2023-04-16T12:56:15.214Z,68.09
2023-04-16T12:58:50.883Z,67.75
2023-04-16T13:01:23.547Z,67.57
2023-04-16T13:03:56.201Z,74.57
2023-04-16T13:06:28.662Z,76.53
2023-04-16T13:09:01.705Z,73.26
2023-04-16T13:11:33.968Z,70.79
2023-04-16T13:14:06.305Z,71.36
2023-04-16T13:16:38.647Z,71.00
2023-04-16T13:19:11.112Z,73.94
2023-04-16T13:21:43.606Z,71.94
2023-04-16T13:24:16.644Z,71.34
2023-04-16T13:26:49.156Z,71.96
2023-04-16T13:29:21.877Z,71.51
2023-04-16T13:31:54.350Z,70.56
2023-04-16T13:34:26.866Z,68.68
2023-04-16T13:36:59.263Z,69.29
2023-04-16T13:39:32.273Z,70.51
2023-04-16T13:42:04.737Z,73.06
2023-04-16T13:44:37.099Z,71.49
2023-04-16T13:47:10.608Z,76.45
2023-04-16T13:49:42.879Z,79.17
2023-04-16T13:52:15.415Z,84.15
2023-04-16T13:54:48.541Z,84.01
2023-04-16T13:57:25.422Z,85.87
2023-04-16T13:59:57.847Z,85.35
2023-04-16T14:02:30.309Z,96.06
2023-04-16T14:05:02.764Z,97.97
2023-04-16T14:07:35.138Z,100.00
2023-04-16T14:10:09.616Z,97.03
2023-04-16T14:12:43.096Z,85.37
2023-04-16T14:15:15.446Z,81.84
2023-04-16T14:17:47.800Z,83.96
2023-04-16T14:20:20.352Z,85.08
2023-04-16T14:22:52.676Z,85.72
2023-04-16T14:25:25.636Z,77.92
2023-04-16T14:27:59.019Z,75.16
2023-04-16T14:30:31.441Z,66.96
2023-04-16T14:33:05.413Z,69.98
2023-04-16T14:35:37.722Z,68.35
2023-04-16T14:38:10.979Z,74.00
2023-04-16T14:40:44.028Z,68.24
2023-04-16T14:43:16.383Z,68.98
2023-04-16T14:45:48.722Z,68.40
2023-04-16T14:48:21.473Z,71.14
2023-04-16T14:50:53.914Z,73.44
2023-04-16T14:53:26.420Z,74.01
2023-04-16T14:55:59.447Z,77.65
2023-04-16T14:58:31.989Z,80.79
2023-04-16T15:01:04.462Z,83.25
2023-04-16T15:03:36.854Z,80.37
2023-04-16T15:06:09.553Z,82.47
2023-04-16T15:08:41.898Z,81.86
2023-04-16T15:11:14.929Z,81.66
2023-04-16T15:13:47.261Z,84.41
2023-04-16T15:16:19.640Z,87.74
2023-04-16T15:18:52.050Z,85.47
2023-04-16T15:21:25.591Z,87.24
2023-04-16T15:23:58.454Z,86.79
2023-04-16T15:26:31.630Z,87.73
2023-04-16T15:29:04.085Z,90.01
2023-04-16T15:31:36.385Z,89.21
2023-04-16T15:34:08.938Z,88.08
2023-04-16T15:36:41.781Z,89.23
2023-04-16T15:39:14.230Z,90.87
2023-04-16T15:44:25.964Z,91.08
2023-04-16T15:46:58.642Z,92.18
2023-04-16T15:49:31.037Z,93.39
2023-04-16T15:52:03.665Z,97.57
2023-04-16T15:54:35.915Z,99.69
2023-04-16T15:57:09.085Z,100.00
2023-04-16T15:59:41.366Z,100.00
2023-04-16T16:02:13.827Z,100.00
2023-04-16T16:04:46.434Z,100.00
2023-04-16T16:07:19.416Z,100.00
2023-04-16T16:09:52.389Z,100.00
2023-04-16T16:12:32.735Z,100.00
2023-04-16T16:15:06.261Z,100.00
2023-04-16T16:17:39.854Z,100.00
2023-04-16T16:20:12.459Z,100.00
2023-04-16T16:22:46.060Z,100.00
2023-04-16T16:25:18.472Z,100.00
2023-04-16T16:27:52.073Z,100.00
2023-04-16T16:30:24.549Z,100.00
2023-04-16T16:32:57.171Z,100.00
2023-04-16T16:35:29.515Z,100.00
2023-04-16T16:38:01.869Z,100.00
2023-04-16T16:40:34.126Z,100.00
2023-04-16T16:43:07.441Z,100.00
2023-04-16T16:45:39.791Z,100.00
2023-04-16T16:48:12.240Z,100.00
2023-04-16T16:50:44.528Z,100.00
2023-04-16T16:53:16.933Z,100.00
2023-04-16T16:55:49.224Z,100.00
2023-04-16T16:58:22.272Z,100.00
2023-04-16T17:00:54.711Z,100.00
2023-04-16T17:03:27.303Z,100.00
2023-04-16T17:05:59.754Z,100.00
2023-04-16T17:08:32.206Z,100.00
2023-04-16T17:11:04.613Z,100.00
2023-04-16T17:13:37.745Z,100.00
2023-04-16T17:16:10.106Z,100.00
2023-04-16T17:18:42.463Z,100.00
2023-04-16T17:21:16.486Z,100.00
2023-04-16T17:23:49.196Z,100.00
2023-04-16T17:26:21.705Z,100.00
2023-04-16T17:28:56.824Z,100.00
2023-04-16T17:31:29.219Z,100.00
2023-04-16T17:34:04.447Z,100.00
2023-04-16T17:36:36.883Z,100.00
2023-04-16T17:39:09.563Z,100.00
2023-04-16T17:41:41.949Z,100.00
2023-04-16T17:44:15.018Z,100.00
2023-04-16T17:46:47.401Z,100.00
2023-04-16T17:49:19.888Z,100.00
2023-04-16T17:51:53.911Z,100.00
2023-04-16T17:54:26.348Z,100.00
2023-04-16T17:56:58.750Z,100.00
2023-04-16T17:59:31.798Z,100.00
2023-04-16T18:02:04.441Z,100.00
2023-04-16T18:04:36.889Z,100.00
2023-04-16T18:07:09.372Z,100.00
2023-04-16T18:09:41.867Z,100.00
2023-04-16T18:12:14.149Z,100.00
2023-04-16T18:14:47.104Z,100.00
2023-04-16T18:17:21.280Z,100.00
2023-04-16T18:19:53.587Z,100.00
2023-04-16T18:22:32.294Z,100.00
2023-04-16T18:25:05.992Z,100.00
2023-04-16T18:27:38.427Z,100.00
2023-04-16T18:30:19.797Z,100.00
2023-04-16T18:33:06.874Z,100.00
2023-04-16T18:35:46.664Z,100.00
2023-04-16T18:38:19.146Z,100.00
2023-04-16T18:40:51.461Z,100.00
2023-04-16T18:43:24.004Z,100.00
2023-04-16T18:45:56.947Z,100.00
2023-04-16T18:48:29.427Z,100.00
2023-04-16T18:51:02.146Z,100.00
2023-04-16T18:53:34.522Z,100.00
2023-04-16T18:56:07.217Z,100.00
2023-04-16T18:58:39.529Z,100.00
2023-04-16T19:01:13.339Z,100.00
2023-04-16T19:03:45.766Z,100.00
2023-04-16T19:06:18.086Z,100.00
2023-04-16T19:08:50.412Z,100.00
2023-04-16T19:11:22.776Z,100.00
2023-04-16T19:13:55.186Z,100.00
2023-04-16T19:16:28.271Z,100.00
2023-04-16T19:19:00.929Z,100.00
2023-04-16T19:21:33.528Z,100.00
2023-04-16T19:24:06.671Z,100.00
2023-04-16T19:26:38.973Z,100.00
2023-04-16T19:29:11.496Z,100.00
2023-04-16T19:31:46.294Z,100.00
2023-04-16T19:34:18.646Z,100.00
2023-04-16T19:36:50.939Z,100.00
2023-04-16T19:39:25.961Z,100.00
2023-04-16T19:41:58.250Z,100.00
2023-04-16T19:44:31.579Z,100.00
2023-04-16T19:47:05.778Z,100.00
2023-04-16T19:49:38.266Z,100.00
2023-04-16T19:52:10.545Z,100.00
2023-04-16T19:54:43.070Z,100.00
2023-04-16T19:57:15.376Z,100.00
2023-04-16T19:59:47.637Z,100.00
2023-04-16T20:02:20.696Z,100.00
2023-04-16T20:04:53.099Z,100.00
2023-04-16T20:07:25.403Z,100.00
2023-04-16T20:09:57.793Z,100.00
2023-04-16T20:12:30.023Z,100.00
2023-04-16T20:15:02.337Z,100.00
2023-04-16T20:17:35.275Z,100.00
2023-04-16T20:20:09.491Z,100.00
2023-04-16T20:22:42.403Z,100.00
2023-04-16T20:25:18.164Z,100.00
2023-04-16T20:27:50.435Z,100.00
2023-04-16T20:30:28.065Z,100.00
2023-04-16T20:33:01.585Z,100.00
2023-04-16T20:35:34.172Z,100.00
2023-04-16T20:38:06.444Z,100.00
2023-04-16T20:40:39.432Z,100.00
2023-04-16T20:43:13.436Z,100.00
2023-04-16T20:45:45.690Z,100.00
2023-04-16T20:48:18.706Z,100.00
2023-04-16T20:50:51.077Z,100.00
2023-04-16T20:53:23.362Z,100.00
2023-04-16T20:55:55.662Z,100.00
2023-04-16T20:58:28.231Z,100.00
2023-04-16T21:01:00.841Z,100.00
2023-04-16T21:03:34.003Z,100.00
2023-04-16T21:06:06.580Z,100.00
2023-04-16T21:08:38.873Z,100.00
2023-04-16T21:11:11.662Z,100.00
2023-04-16T21:13:44.041Z,100.00
2023-04-16T21:16:16.569Z,100.00
2023-04-16T21:18:49.667Z,100.00
2023-04-16T21:21:22.013Z,100.00
2023-04-16T21:23:54.470Z,100.00
2023-04-16T21:26:26.767Z,100.00
2023-04-16T21:28:59.083Z,100.00
2023-04-16T21:31:31.443Z,100.00
2023-04-16T21:34:04.451Z,100.00
2023-04-16T21:36:36.752Z,100.00
2023-04-16T21:39:10.424Z,100.00
2023-04-16T21:41:42.981Z,100.00
2023-04-16T21:44:15.318Z,100.00
2023-04-16T21:46:47.642Z,100.00
2023-04-16T21:49:20.775Z,100.00
2023-04-16T21:51:58.557Z,100.00
2023-04-16T21:54:30.894Z,100.00
2023-04-16T21:57:03.401Z,100.00
2023-04-16T21:59:35.708Z,100.00
2023-04-16T22:02:08.147Z,100.00
2023-04-16T22:04:41.482Z,100.00
2023-04-16T22:07:16.025Z,100.00
2023-04-16T22:09:48.437Z,100.00
2023-04-16T22:12:20.729Z,100.00
2023-04-16T22:15:02.411Z,100.00
2023-04-16T22:17:35.283Z,100.00
2023-04-16T22:20:11.946Z,100.00
2023-04-16T22:22:44.360Z,100.00
2023-04-16T22:25:16.669Z,100.00
2023-04-16T22:27:49.044Z,100.00
2023-04-16T22:30:21.597Z,100.00
2023-04-16T22:32:53.971Z,100.00
2023-04-16T22:35:26.995Z,100.00
2023-04-16T22:37:59.362Z,100.00
2023-04-16T22:40:31.830Z,100.00
2023-04-16T22:43:04.300Z,100.00
2023-04-16T22:45:36.811Z,100.00
2023-04-16T22:48:09.198Z,100.00
2023-04-16T22:50:47.656Z,100.00
2023-04-16T22:53:20.131Z,100.00
2023-04-16T22:55:52.438Z,100.00
2023-04-16T22:58:24.866Z,100.00
2023-04-16T23:00:58.657Z,100.00
2023-04-16T23:03:31.214Z,100.00
2023-04-16T23:06:05.677Z,100.00
2023-04-16T23:08:38.003Z,100.00
2023-04-16T23:11:10.600Z,100.00
2023-04-16T23:13:42.849Z,100.00
2023-04-16T23:16:15.376Z,100.00
2023-04-16T23:18:47.736Z,100.00
2023-04-16T23:21:20.701Z,100.00
2023-04-16T23:23:52.957Z,100.00
2023-04-16T23:26:25.297Z,100.00
2023-04-16T23:28:57.570Z,100.00
2023-04-16T23:31:29.930Z,100.00
2023-04-16T23:34:02.257Z,100.00
2023-04-16T23:36:35.305Z,100.00
2023-04-16T23:39:07.607Z,100.00
2023-04-16T23:41:39.904Z,100.00
2023-04-16T23:44:12.208Z,100.00
2023-04-16T23:46:44.766Z,100.00
2023-04-16T23:49:17.136Z,100.00
2023-04-16T23:51:50.168Z,100.00
2023-04-16T23:54:22.520Z,100.00
2023-04-16T23:56:56.310Z,100.00
2023-04-16T23:59:28.841Z,100.00
